createdAt,value
2023-04-02T00:02:33.512Z,99374.73
2023-04-02T00:07:41.739Z,99384.14
2023-04-02T00:13:02.585Z,99390.07
2023-04-02T00:18:11.723Z,99395.34
2023-04-02T00:23:18.756Z,99399.55
2023-04-02T00:28:25.999Z,99408.99
2023-04-02T00:33:34.301Z,99418.58
2023-04-02T00:38:43.816Z,99424.76
2023-04-02T00:43:52.003Z,99427.13
2023-04-02T00:49:02.302Z,99429.86
2023-04-02T00:54:15.800Z,99441.70
2023-04-02T00:59:29.686Z,99451.89
2023-04-02T01:04:37.234Z,99459.36
2023-04-02T01:09:58.599Z,99463.98
2023-04-02T01:15:13.052Z,99466.87
2023-04-02T01:20:53.151Z,99469.38
2023-04-02T01:26:06.409Z,99475.58
2023-04-02T01:31:13.659Z,99486.41
2023-04-02T01:36:27.996Z,99491.73
2023-04-02T01:41:40.462Z,99499.91
2023-04-02T01:46:51.009Z,99508.77
2023-04-02T01:51:58.332Z,99515.28
2023-04-02T01:57:08.712Z,99520.60
2023-04-02T02:02:16.410Z,99528.16
2023-04-02T02:07:24.229Z,99533.80
2023-04-02T02:12:33.386Z,99538.15
2023-04-02T02:17:40.482Z,99546.58
2023-04-02T02:22:49.615Z,99551.27
2023-04-02T02:28:03.829Z,99559.20
2023-04-02T02:33:17.055Z,99570.68
2023-04-02T02:38:36.340Z,99577.86
2023-04-02T02:43:54.276Z,99585.73
2023-04-02T02:49:04.517Z,99599.04
2023-04-02T02:54:12.069Z,99601.79
2023-04-02T02:59:20.338Z,99614.57
2023-04-02T03:04:30.737Z,99618.04
2023-04-02T03:09:47.159Z,99632.37
2023-04-02T03:15:03.355Z,99646.48
2023-04-02T03:20:18.867Z,99653.45
2023-04-02T03:25:34.292Z,99661.03
2023-04-02T03:30:47.603Z,99666.69
2023-04-02T03:36:02.542Z,99675.05
2023-04-02T03:41:17.392Z,99684.46
2023-04-02T03:46:32.560Z,99694.38
2023-04-02T03:51:51.132Z,99706.10
2023-04-02T03:56:58.224Z,99717.02
2023-04-02T04:02:15.866Z,99729.09
2023-04-02T04:07:32.282Z,99737.10
2023-04-02T04:12:45.604Z,99748.15
2023-04-02T04:18:02.127Z,99751.39
2023-04-02T04:23:25.962Z,99759.95
2023-04-02T04:28:39.996Z,99766.92
2023-04-02T04:33:54.876Z,99778.13
2023-04-02T04:39:21.580Z,99789.15
2023-04-02T04:44:38.677Z,99796.41
2023-04-02T04:49:48.886Z,99807.73
2023-04-02T04:54:56.498Z,99813.64
2023-04-02T05:00:15.788Z,99823.41
2023-04-02T05:05:29.381Z,99836.28
2023-04-02T05:10:44.280Z,99848.00
2023-04-02T05:16:02.751Z,99862.42
2023-04-02T05:21:20.451Z,99872.27
2023-04-02T05:26:33.401Z,99876.50
2023-04-02T05:31:48.841Z,99878.35
2023-04-02T05:36:57.125Z,99885.64
2023-04-02T05:42:08.314Z,99893.28
2023-04-02T05:47:51.831Z,99904.48
2023-04-02T05:53:07.866Z,99907.84
2023-04-02T05:58:35.371Z,99916.01
2023-04-02T06:03:55.735Z,99923.80
2023-04-02T06:09:11.141Z,99934.31
2023-04-02T06:14:19.585Z,99940.27
2023-04-02T06:19:32.445Z,99943.31
2023-04-02T06:24:41.406Z,99953.84
2023-04-02T06:29:52.985Z,99963.02
2023-04-02T06:35:00.543Z,99977.77
2023-04-02T06:40:22.298Z,99980.48
2023-04-02T06:45:35.898Z,99990.16
2023-04-02T06:51:07.657Z,100002.36
2023-04-02T06:56:32.046Z,100004.39
2023-04-02T07:01:43.097Z,100010.14
2023-04-02T07:06:51.208Z,100019.10
2023-04-02T07:11:58.893Z,100026.72
2023-04-02T07:17:06.479Z,100034.37
2023-04-02T07:22:13.415Z,100040.30
2023-04-02T07:27:22.633Z,100051.66
2023-04-02T07:32:29.589Z,100057.25
2023-04-02T07:37:36.537Z,100065.08
2023-04-02T07:42:43.401Z,100074.77
2023-04-02T07:47:50.378Z,100084.43
2023-04-02T07:52:57.520Z,100085.79
2023-04-02T07:58:04.401Z,100097.30
2023-04-02T08:03:14.393Z,100099.81
2023-04-02T08:08:21.668Z,100112.88
2023-04-02T08:13:29.005Z,100122.57
2023-04-02T08:18:36.206Z,100133.45
2023-04-02T08:23:43.649Z,100150.11
2023-04-02T08:28:50.524Z,100152.53
2023-04-02T08:33:57.573Z,100161.35
2023-04-02T08:39:05.184Z,100166.08
2023-04-02T08:44:24.178Z,100166.86
2023-04-02T08:49:36.424Z,100172.39
2023-04-02T08:54:44.648Z,100171.87
2023-04-02T08:59:58.184Z,100177.48
2023-04-02T09:05:09.299Z,100182.85
2023-04-02T09:10:18.390Z,100189.94
2023-04-02T09:15:34.869Z,100196.65
2023-04-02T09:20:42.113Z,100200.48
2023-04-02T09:26:03.456Z,100209.35
2023-04-02T09:31:18.358Z,100218.60
2023-04-02T09:36:37.190Z,100229.67
2023-04-02T09:41:48.079Z,100239.73
2023-04-02T09:47:03.988Z,100250.84
2023-04-02T09:52:29.859Z,100259.02
2023-04-02T09:57:38.333Z,100267.02
2023-04-02T10:02:46.792Z,100273.15
2023-04-02T10:07:55.507Z,100278.59
2023-04-02T10:13:08.010Z,100290.84
2023-04-02T10:18:22.283Z,100294.90
2023-04-02T10:23:31.854Z,100301.86
2023-04-02T10:28:51.940Z,100306.10
2023-04-02T10:34:07.550Z,100315.27
2023-04-02T10:39:21.215Z,100321.38
2023-04-02T10:44:41.473Z,100319.63
2023-04-02T10:49:55.724Z,100319.41
2023-04-02T10:55:07.381Z,100324.66
2023-04-02T11:00:26.024Z,100332.35
2023-04-02T11:05:43.991Z,100339.35
2023-04-02T11:10:57.079Z,100346.19
2023-04-02T11:16:04.937Z,100355.23
2023-04-02T11:21:54.895Z,100366.63
2023-04-02T11:27:16.518Z,100372.58
2023-04-02T11:32:35.292Z,100379.16
2023-04-02T11:37:44.750Z,100375.09
2023-04-02T11:42:52.833Z,100382.56
2023-04-02T11:48:27.151Z,100384.05
2023-04-02T11:53:36.100Z,100388.61
2023-04-02T11:58:54.976Z,100402.07
2023-04-02T12:04:36.738Z,100414.71
2023-04-02T12:09:50.825Z,100419.19
2023-04-02T12:14:58.909Z,100430.27
2023-04-02T12:20:21.591Z,100436.39
2023-04-02T12:25:33.046Z,100438.94
2023-04-02T12:30:41.562Z,100438.08
2023-04-02T12:35:50.375Z,100443.52
2023-04-02T12:40:58.700Z,100447.42
2023-04-02T12:46:08.801Z,100446.71
2023-04-02T12:51:17.245Z,100449.27
2023-04-02T12:56:25.889Z,100455.04
2023-04-02T13:01:34.030Z,100460.66
2023-04-02T13:06:44.275Z,100465.77
2023-04-02T13:11:51.313Z,100467.30
2023-04-02T13:16:58.532Z,100472.21
2023-04-02T13:22:28.686Z,100478.16
2023-04-02T13:27:35.784Z,100482.23
2023-04-02T13:32:42.762Z,100486.15
2023-04-02T13:37:50.021Z,100487.65
2023-04-02T13:42:57.078Z,100491.91
2023-04-02T13:48:04.239Z,100500.77
2023-04-02T13:53:20.784Z,100506.02
2023-04-02T13:58:27.855Z,100511.63
2023-04-02T14:03:35.668Z,100517.58
2023-04-02T14:08:55.878Z,100520.46
2023-04-02T14:14:19.556Z,100526.27
2023-04-02T14:19:37.336Z,100527.99
2023-04-02T14:24:54.675Z,100533.63
2023-04-02T14:30:08.109Z,100536.70
2023-04-02T14:35:24.137Z,100545.92
2023-04-02T14:40:37.985Z,100553.26
2023-04-02T14:46:02.911Z,100557.52
2023-04-02T14:51:17.075Z,100561.44
2023-04-02T14:56:25.720Z,100565.20
2023-04-02T15:01:39.478Z,100570.48
2023-04-02T15:06:50.345Z,100571.84
2023-04-02T15:12:01.128Z,100580.88
2023-04-02T15:17:11.232Z,100589.73
2023-04-02T15:22:30.845Z,100587.70
2023-04-02T15:27:53.091Z,100594.52
2023-04-02T15:33:20.659Z,100597.42
2023-04-02T15:38:35.174Z,100603.72
2023-04-02T15:43:46.055Z,100615.14
2023-04-02T15:49:06.245Z,100620.24
2023-04-02T15:54:25.959Z,100625.02
2023-04-02T15:59:58.919Z,100628.42
2023-04-02T16:05:16.113Z,100636.10
2023-04-02T16:10:41.003Z,100636.27
2023-04-02T16:15:54.808Z,100645.30
2023-04-02T16:21:03.956Z,100653.15
2023-04-02T16:26:24.849Z,100660.80
2023-04-02T16:31:39.551Z,100671.55
2023-04-02T16:36:56.081Z,100681.06
2023-04-02T16:42:16.599Z,100690.95
2023-04-02T16:47:40.300Z,100696.55
2023-04-02T16:52:54.249Z,100707.45
2023-04-02T16:58:14.077Z,100711.52
2023-04-02T17:03:40.431Z,100718.65
2023-04-02T17:08:54.773Z,100726.64
2023-04-02T17:14:07.243Z,100738.04
2023-04-02T17:19:16.653Z,100743.13
2023-04-02T17:24:31.013Z,100746.86
2023-04-02T17:29:39.872Z,100754.19
2023-04-02T17:34:46.866Z,100757.25
2023-04-02T17:40:03.092Z,100763.05
2023-04-02T17:45:18.465Z,100770.02
2023-04-02T17:50:39.502Z,100771.05
2023-04-02T17:55:57.519Z,100783.80
2023-04-02T18:01:13.394Z,100792.33
2023-04-02T18:06:25.753Z,100791.98
2023-04-02T18:11:43.269Z,100805.77
2023-04-02T18:16:58.141Z,100814.61
2023-04-02T18:22:14.497Z,100822.27
2023-04-02T18:27:31.984Z,100830.25
2023-04-02T18:32:57.284Z,100843.87
2023-04-02T18:38:20.186Z,100854.41
2023-04-02T18:43:38.311Z,100858.33
2023-04-02T18:48:53.796Z,100861.02
2023-04-02T18:54:16.430Z,100864.07
2023-04-02T18:59:39.519Z,100875.81
2023-04-02T19:04:53.014Z,100883.65
2023-04-02T19:10:27.639Z,100886.69
2023-04-02T19:15:44.453Z,100895.54
2023-04-02T19:20:58.076Z,100897.74
2023-04-02T19:26:09.723Z,100903.17
2023-04-02T19:31:30.539Z,100912.55
2023-04-02T19:36:49.567Z,100913.77
2023-04-02T19:42:03.725Z,100917.69
2023-04-02T19:47:14.259Z,100920.23
2023-04-02T19:52:21.926Z,100921.93
2023-04-02T19:57:29.221Z,100928.55
2023-04-02T20:02:36.116Z,100931.61
2023-04-02T20:07:43.373Z,100931.92
2023-04-02T20:12:50.637Z,100939.05
2023-04-02T20:17:57.759Z,100948.72
2023-04-02T20:23:04.727Z,100946.48
2023-04-02T20:28:12.210Z,100950.36
2023-04-02T20:33:19.653Z,100954.42
2023-04-02T20:38:27.510Z,100957.77
2023-04-02T20:43:36.032Z,100965.54
2023-04-02T20:48:43.411Z,100972.45
2023-04-02T20:53:50.412Z,100980.00
2023-04-02T20:58:57.651Z,100983.13
2023-04-02T21:04:06.045Z,100987.62
2023-04-02T21:09:17.292Z,100991.77
2023-04-02T21:14:24.222Z,100997.49
2023-04-02T21:19:32.904Z,100992.84
2023-04-02T21:24:39.872Z,100995.84
2023-04-02T21:29:46.857Z,100999.86
2023-04-02T21:34:54.994Z,101007.62
2023-04-02T21:40:01.976Z,101011.27
2023-04-02T21:45:10.527Z,101020.00
2023-04-02T21:50:17.557Z,101024.48
2023-04-02T21:55:24.405Z,101025.61
2023-04-02T22:00:31.332Z,101025.02
2023-04-02T22:05:39.174Z,101030.75
2023-04-02T22:10:46.563Z,101041.02
2023-04-02T22:15:53.517Z,101041.61
2023-04-02T22:21:01.951Z,101044.38
2023-04-02T22:26:10.533Z,101052.60
2023-04-02T22:31:19.645Z,101055.23
2023-04-02T22:36:28.940Z,101059.51
2023-04-02T22:41:36.345Z,101060.20
2023-04-02T22:46:43.266Z,101058.00
2023-04-02T22:51:50.422Z,101060.38
2023-04-02T22:56:57.396Z,101065.41
2023-04-02T23:02:04.284Z,101060.56
2023-04-02T23:07:11.497Z,101074.02
2023-04-02T23:12:18.589Z,101069.64
2023-04-02T23:17:25.580Z,101073.99
2023-04-02T23:22:32.601Z,101079.92
2023-04-02T23:27:39.531Z,101084.17
2023-04-02T23:32:46.519Z,101082.34
2023-04-02T23:37:53.468Z,101087.92
2023-04-02T23:43:00.416Z,101086.36
2023-04-02T23:48:07.959Z,101089.52
2023-04-02T23:53:16.457Z,101090.81
2023-04-02T23:58:23.413Z,101092.86
